Time;durP1;ratioP1;P1;durP2;ratioP2;P2;SDS_P1;SDS_P2;PMS_P1;PMS_P2;Temp;Humidity;BMP_temperature;BMP_pressure;BME280_temperature;BME280_humidity;BME280_pressure;Samples;Min_cycle;Max_cycle;Signal;HPM_P1;HPM_P2
2022/02/09 00:00:54;;;;;;;4.35;3.08;;;;;;;4.92;79.47;97730.84;1663069;85;25827;-83
2022/02/09 00:03:17;;;;;;;3.12;2.22;;;;;;;4.92;79.54;97738.37;1662275;85;25775;-83
2022/02/09 00:05:47;;;;;;;2.80;2.00;;;;;;;4.94;79.53;97739.55;1662499;85;27407;-84
2022/02/09 00:08:11;;;;;;;3.10;1.80;;;;;;;4.95;79.55;97737.20;1662510;85;25681;-83
2022/02/09 00:10:40;;;;;;;2.42;1.80;;;;;;;4.93;79.33;97747.23;1662855;85;25723;-83
2022/02/09 00:29:15;;;;;;;1.40;1.10;;;;;;;5.06;79.20;97764.95;1663117;85;25747;-82
2022/02/09 00:40:10;;;;;;;1.30;1.20;;;;;;;5.13;79.13;97788.69;1663086;86;25734;-81
2022/02/09 01:51:15;;;;;;;5.28;2.65;;;;;;;5.23;78.37;97847.39;1662768;86;25703;-83
2022/02/09 01:56:24;;;;;;;3.62;2.20;;;;;;;5.14;78.34;97849.23;1662660;86;25669;-81
2022/02/09 01:58:51;;;;;;;3.00;2.12;;;;;;;5.13;78.44;97841.38;1662979;86;25693;-81
2022/02/09 02:01:18;;;;;;;5.22;2.62;;;;;;;5.15;78.52;97842.88;1663023;85;25778;-82
2022/02/09 02:03:45;;;;;;;4.33;2.65;;;;;;;5.18;78.61;97841.72;1663051;86;25753;-82
2022/02/09 02:06:16;;;;;;;2.58;2.10;;;;;;;5.19;78.61;97844.23;1662800;85;27435;-82
2022/02/09 02:08:42;;;;;;;4.10;2.25;;;;;;;5.16;78.62;97847.23;1662754;85;25887;-83
2022/02/09 02:11:18;;;;;;;3.52;2.05;;;;;;;5.14;78.78;97846.56;1662950;85;25808;-81
2022/02/09 02:13:53;;;;;;;3.50;2.25;;;;;;;5.11;78.83;97850.90;1662187;85;25689;-81
2022/02/09 02:18:33;;;;;;;4.53;2.70;;;;;;;5.03;78.97;97850.41;1663013;85;27555;-81
2022/02/09 02:29:27;;;;;;;2.98;2.12;;;;;;;5.02;79.29;97856.75;1663308;86;25566;-82
2022/02/09 02:34:35;;;;;;;2.95;2.37;;;;;;;5.02;79.25;97855.91;1657741;86;25785;-81
2022/02/09 03:14:15;;;;;;;3.10;2.10;;;;;;;4.99;79.85;97885.66;1630198;87;26055;-82
2022/02/09 03:16:44;;;;;;;2.40;2.08;;;;;;;4.99;79.79;97884.33;1630337;87;25835;-81
2022/02/09 03:19:37;;;;;;;2.83;2.30;;;;;;;4.95;79.73;97883.00;1681270;85;26552;-82
2022/02/09 03:22:02;;;;;;;2.37;2.17;;;;;;;4.89;79.66;97879.13;1679725;85;25705;-82
2022/02/09 03:24:36;;;;;;;4.22;2.27;;;;;;;4.88;79.77;97884.64;1680811;85;27543;-82
2022/02/09 03:27:25;;;;;;;4.00;2.45;;;;;;;4.93;79.85;97893.03;1680343;85;25804;-82
2022/02/09 03:43:41;;;;;;;3.52;2.45;;;;;;;4.95;79.93;97902.54;1682680;85;25825;-81
2022/02/09 03:54:55;;;;;;;4.80;2.98;;;;;;;4.94;80.10;97910.75;1684263;84;25992;-80
2022/02/09 03:56:41;;;;;;;5.28;3.20;;;;;;;4.90;80.03;97913.41;1633936;86;26317;-81
2022/02/09 03:58:56;;;;;;;2.75;2.55;;;;;;;4.88;80.11;97905.55;1638796;86;25875;-82
2022/02/09 04:01:27;;;;;;;5.03;3.02;;;;;;;4.85;80.09;97905.86;1614958;87;25719;-80
2022/02/09 04:03:52;;;;;;;5.15;2.92;;;;;;;4.85;80.20;97909.88;1645325;86;28102;-82
2022/02/09 04:06:18;;;;;;;3.83;2.65;;;;;;;4.88;80.30;97908.72;1645179;87;26333;-82
2022/02/09 04:08:54;;;;;;;3.55;2.87;;;;;;;4.87;80.31;97913.73;1645295;86;25727;-82
2022/02/09 04:11:32;;;;;;;4.75;3.10;;;;;;;4.84;80.34;97912.21;1645341;86;25775;-82
2022/02/09 04:38:45;;;;;;;5.33;4.22;;;;;;;4.88;80.43;97909.56;1668367;85;26641;-81
2022/02/09 04:54:26;;;;;;;7.42;6.10;;;;;;;4.70;80.46;97908.35;1668305;85;25804;-81
2022/02/09 04:56:47;;;;;;;9.70;7.12;;;;;;;4.69;80.53;97920.05;1657143;86;27633;-81
2022/02/09 05:02:05;;;;;;;18.40;10.70;;;;;;;4.70;80.48;97911.03;1659736;86;25770;-82
2022/02/09 05:21:13;;;;;;;27.93;15.68;;;;;;;4.50;80.52;97922.13;1659826;86;25683;-82
2022/02/09 05:25:52;;;;;;;31.90;16.32;;;;;;;4.47;80.68;97925.95;1659703;86;25875;-82
2022/02/09 05:28:17;;;;;;;79.15;42.90;;;;;;;4.42;80.72;97923.44;1658809;86;25852;-82
2022/02/09 05:30:52;;;;;;;69.25;36.75;;;;;;;4.41;80.86;97930.61;1659241;86;26779;-82
2022/02/09 05:33:20;;;;;;;36.80;21.93;;;;;;;4.46;80.99;97935.49;1659739;86;25782;-82
2022/02/09 05:35:47;;;;;;;42.60;22.17;;;;;;;4.39;80.72;97937.95;1659697;86;28187;-82
2022/02/09 05:38:16;;;;;;;38.75;22.30;;;;;;;4.32;80.72;97932.92;1659718;86;25719;-82
2022/02/09 05:40:44;;;;;;;39.98;19.98;;;;;;;4.36;80.88;97938.26;1659739;86;25783;-82
2022/02/09 05:43:12;;;;;;;38.85;21.40;;;;;;;4.37;80.93;97936.43;1659794;86;25800;-82
2022/02/09 05:46:02;;;;;;;44.18;27.35;;;;;;;4.38;80.92;97938.95;1659813;85;25764;-82
2022/02/09 05:50:53;;;;;;;26.93;16.67;;;;;;;4.34;80.90;97936.27;1659645;86;25862;-82
2022/02/09 05:53:20;;;;;;;29.70;17.25;;;;;;;4.26;80.87;97936.20;1658854;86;25788;-81
2022/02/09 05:58:32;;;;;;;30.72;16.70;;;;;;;4.27;81.07;97942.73;1656945;86;25731;-81
2022/02/09 06:00:47;;;;;;;;;;;;;;;4.28;80.96;97947.08;1655989;86;28188;-81
2022/02/09 06:03:10;;;;;;;27.52;16.07;;;;;;;4.27;80.97;97949.91;1656305;86;25787;-81
2022/02/09 06:05:37;;;;;;;23.90;15.18;;;;;;;4.25;80.93;97949.23;1656105;86;25827;-81
2022/02/09 06:08:04;;;;;;;26.68;16.87;;;;;;;4.26;80.91;97951.74;1656945;86;26137;-81
2022/02/09 06:10:33;;;;;;;33.42;18.57;;;;;;;4.25;80.90;97958.58;1657025;86;25755;-81
2022/02/09 06:13:14;;;;;;;30.97;17.77;;;;;;;4.27;80.93;97961.94;1656937;86;28489;-81
2022/02/09 06:20:52;;;;;;;24.00;16.10;;;;;;;4.20;80.94;97968.92;1599923;89;25904;-81
2022/02/09 06:23:18;;;;;;;24.12;16.07;;;;;;;4.24;80.97;97971.60;1638664;86;25799;-81
2022/02/09 06:25:44;;;;;;;19.95;13.53;;;;;;;4.24;80.86;97974.27;1657098;86;27380;-81
2022/02/09 06:28:11;;;;;;;16.17;11.15;;;;;;;4.25;80.92;97979.46;1657001;86;25720;-81
2022/02/09 06:30:38;;;;;;;13.08;8.70;;;;;;;4.28;81.00;97973.81;1656763;86;26174;-81
2022/02/09 06:33:05;;;;;;;13.70;9.65;;;;;;;4.32;81.08;97978.35;1660459;86;26707;-81
2022/02/09 06:35:32;;;;;;;13.08;8.80;;;;;;;4.34;81.06;97979.88;1662273;86;25719;-81
2022/02/09 06:38:00;;;;;;;12.80;9.40;;;;;;;4.34;81.00;97985.22;1662265;85;27345;-81
2022/02/09 06:40:27;;;;;;;14.78;10.23;;;;;;;4.34;80.95;97981.21;1661872;86;25730;-81
2022/02/09 06:42:54;;;;;;;17.23;11.08;;;;;;;4.34;81.02;97985.22;1662274;85;25913;-81
2022/02/09 06:45:25;;;;;;;14.55;11.28;;;;;;;4.36;81.10;97987.70;1662283;85;25914;-81
2022/02/09 06:47:50;;;;;;;20.68;13.58;;;;;;;4.36;81.12;97987.70;1662114;85;25751;-81
2022/02/09 06:50:33;;;;;;;19.92;13.32;;;;;;;4.38;81.16;97984.38;1662184;85;27564;-81
2022/02/09 06:53:05;;;;;;;20.90;14.70;;;;;;;4.42;81.20;97987.09;1661356;85;26520;-81
2022/02/09 06:55:27;;;;;;;16.25;10.70;;;;;;;4.47;81.20;97990.11;1661547;85;25782;-82
2022/02/09 07:00:23;;;;;;;14.83;9.23;;;;;;;4.39;81.24;98000.77;1651525;86;25760;-81
2022/02/09 07:02:50;;;;;;;19.27;11.83;;;;;;;4.40;81.35;97997.59;1680487;84;27591;-82
2022/02/09 07:05:18;;;;;;;18.30;10.68;;;;;;;4.46;81.49;98001.83;1651320;86;25773;-81
2022/02/09 07:07:45;;;;;;;15.20;9.08;;;;;;;4.51;81.47;97995.48;1680465;85;25786;-82
2022/02/09 07:10:13;;;;;;;12.63;8.43;;;;;;;4.52;81.42;97991.81;1652809;85;26491;-82
2022/02/09 07:12:41;;;;;;;14.58;8.15;;;;;;;4.55;81.42;97995.52;1663246;85;25825;-82
2022/02/09 07:15:12;;;;;;;14.90;9.43;;;;;;;4.59;81.42;98002.20;1661594;86;28110;-82
2022/02/09 07:17:37;;;;;;;14.53;9.78;;;;;;;4.59;81.42;97992.84;1659090;86;25855;-82
2022/02/09 07:22:41;;;;;;;17.65;10.95;;;;;;;4.62;81.51;97985.01;1630725;87;25935;-82
2022/02/09 07:25:15;;;;;;;16.45;10.95;;;;;;;4.64;81.54;97978.52;1630838;87;26167;-82
2022/02/09 07:27:48;;;;;;;20.52;13.55;;;;;;;4.64;81.53;97977.67;1630899;87;27514;-83
2022/02/09 07:30:09;;;;;;;24.12;14.63;;;;;;;4.63;81.57;97978.67;1630508;87;25903;-82
2022/02/09 07:32:35;;;;;;;21.40;13.72;;;;;;;4.64;81.59;97986.53;1630990;87;26142;-83
2022/02/09 07:35:02;;;;;;;22.07;13.90;;;;;;;4.64;81.65;97989.20;1630809;87;26622;-82
2022/02/09 07:37:29;;;;;;;23.40;16.05;;;;;;;4.65;81.66;97989.55;1630838;87;25903;-82
2022/02/09 07:39:57;;;;;;;19.82;13.75;;;;;;;4.67;81.65;97988.89;1630798;87;27624;-82
2022/02/09 07:42:27;;;;;;;23.07;15.50;;;;;;;4.68;81.64;97993.25;1630491;87;25876;-82
2022/02/09 07:45:22;;;;;;;21.07;14.68;;;;;;;4.70;81.60;97995.77;1630897;87;25974;-83
2022/02/09 07:52:48;;;;;;;24.60;17.30;;;;;;;4.74;81.52;97998.94;1614484;88;27505;-83
2022/02/09 07:55:02;;;;;;;23.47;17.32;;;;;;;4.71;81.50;97995.58;1628016;87;25732;-84
2022/02/09 07:57:29;;;;;;;25.43;17.07;;;;;;;4.75;81.57;97996.60;1628050;88;25943;-84
2022/02/09 07:59:55;;;;;;;25.17;17.37;;;;;;;4.76;81.46;97998.28;1643599;86;26684;-83
2022/02/09 08:02:22;;;;;;;36.23;20.70;;;;;;;4.77;81.45;98001.30;1656752;86;25716;-82
2022/02/09 08:04:48;;;;;;;34.48;19.87;;;;;;;4.76;81.46;98000.95;1656966;86;27627;-83
2022/02/09 08:07:15;;;;;;;34.55;19.85;;;;;;;4.77;81.43;97995.45;1656697;86;25724;-84
2022/02/09 08:09:44;;;;;;;27.98;17.80;;;;;;;4.79;81.41;97993.95;1656879;86;25795;-83
2022/02/09 08:28:34;;;;;;;30.02;18.02;;;;;;;4.99;81.35;98000.71;1656979;86;25816;-82
2022/02/09 08:33:19;;;;;;;40.85;23.87;;;;;;;5.06;81.35;97998.59;1656758;85;25943;-82
2022/02/09 08:35:56;;;;;;;30.95;20.00;;;;;;;5.09;81.37;98001.41;1656621;86;25740;-82
2022/02/09 08:38:19;;;;;;;27.90;18.35;;;;;;;5.14;81.47;98003.11;1655924;86;25719;-82
2022/02/09 08:40:47;;;;;;;31.33;18.55;;;;;;;5.18;81.36;98001.80;1656969;86;25921;-83
2022/02/09 08:43:14;;;;;;;28.50;18.00;;;;;;;5.18;81.29;97994.27;1656725;85;27478;-82
2022/02/09 08:45:43;;;;;;;27.05;17.17;;;;;;;5.15;81.41;97991.91;1656802;86;25825;-82
2022/02/09 08:48:10;;;;;;;27.32;17.25;;;;;;;5.13;81.49;97996.08;1656886;86;25745;-82
2022/02/09 08:50:36;;;;;;;31.25;19.30;;;;;;;5.14;81.60;97988.39;1630773;86;25783;-83
2022/02/09 08:53:04;;;;;;;39.33;22.40;;;;;;;5.18;81.65;97991.59;1656513;86;25732;-82
2022/02/09 08:55:34;;;;;;;35.25;21.73;;;;;;;5.19;81.68;97993.27;1656608;85;27385;-82
2022/02/09 08:58:02;;;;;;;36.70;20.45;;;;;;;5.17;81.71;97989.41;1656498;86;25910;-84
2022/02/09 09:00:33;;;;;;;32.63;19.67;;;;;;;5.17;81.80;97990.75;1656881;86;25795;-83
2022/02/09 09:03:24;;;;;;;32.95;18.92;;;;;;;5.17;81.84;97997.44;1656530;86;25827;-82
2022/02/09 09:05:30;;;;;;;33.88;18.02;;;;;;;5.19;81.86;97995.45;1653063;86;25676;-83
2022/02/09 09:08:08;;;;;;;32.98;17.75;;;;;;;5.21;81.90;98000.11;1656416;86;28312;-83
2022/02/09 09:10:34;;;;;;;26.42;16.57;;;;;;;5.22;81.92;97996.44;1654588;86;25822;-83
2022/02/09 09:16:17;;;;;;;28.60;16.57;;;;;;;5.26;81.94;97997.80;1656622;86;25911;-83
2022/02/09 09:40:33;;;;;;;35.90;20.77;;;;;;;5.30;82.02;97991.13;1656719;86;25719;-83
2022/02/09 10:01:48;;;;;;;25.52;14.80;;;;;;;5.41;82.03;98010.89;1658358;86;27675;-83
2022/02/09 10:32:47;;;;;;;18.95;11.80;;;;;;;5.57;82.08;97994.48;1656612;86;25832;-84
2022/02/09 10:35:14;;;;;;;22.65;12.90;;;;;;;5.56;82.08;97996.33;1634894;86;25274;-83
2022/02/09 10:37:39;;;;;;;23.30;13.43;;;;;;;5.54;82.07;97990.33;1661917;86;25921;-83
2022/02/09 10:40:13;;;;;;;26.37;14.90;;;;;;;5.56;82.10;97992.81;1662275;86;25270;-83
2022/02/09 10:42:46;;;;;;;24.00;13.80;;;;;;;5.57;82.09;97986.45;1661479;86;27492;-84
2022/02/09 10:45:33;;;;;;;26.50;15.58;;;;;;;5.62;82.10;97986.81;1661611;86;25995;-83
2022/02/09 10:47:59;;;;;;;28.38;16.20;;;;;;;5.64;82.07;97986.14;1661795;86;25705;-83
2022/02/09 10:50:32;;;;;;;30.70;17.02;;;;;;;5.69;82.06;97982.45;1662188;86;25850;-85
2022/02/09 10:53:01;;;;;;;30.60;18.17;;;;;;;5.72;81.99;97982.13;1662191;85;26400;-83
2022/02/09 10:55:42;;;;;;;28.73;16.93;;;;;;;5.74;81.95;97972.92;1662116;85;28429;-84
2022/02/09 10:58:16;;;;;;;23.62;14.87;;;;;;;5.78;81.96;97973.44;1640292;85;25878;-83
2022/02/09 11:00:46;;;;;;;27.02;17.77;;;;;;;5.80;81.93;97966.04;1616783;87;26633;-82
2022/02/09 11:03:18;;;;;;;26.50;17.62;;;;;;;5.84;81.88;97963.88;1616933;88;25752;-82
2022/02/09 11:05:47;;;;;;;25.88;17.27;;;;;;;5.88;81.87;97964.75;1617126;88;25813;-83
2022/02/09 11:08:15;;;;;;;29.85;16.87;;;;;;;5.95;81.82;97967.08;1616985;88;27390;-83
2022/02/09 11:10:43;;;;;;;21.42;13.80;;;;;;;5.96;81.66;97962.56;1616892;87;25785;-82
2022/02/09 11:13:12;;;;;;;22.37;14.05;;;;;;;5.99;81.65;97969.77;1618831;87;25867;-83
2022/02/09 11:15:39;;;;;;;22.10;14.80;;;;;;;6.00;81.60;97966.09;1620724;87;25956;-82
2022/02/09 11:18:10;;;;;;;27.50;16.30;;;;;;;6.02;81.46;97964.08;1616902;87;25867;-82
2022/02/09 11:21:07;;;;;;;30.62;18.60;;;;;;;6.06;81.45;97966.73;1616869;87;29259;-81
2022/02/09 11:23:56;;;;;;;27.80;17.50;;;;;;;6.09;81.46;97963.72;1618434;87;25792;-82
2022/02/09 11:32:21;;;;;;;;;;;;;;;6.20;81.36;97963.03;1663076;86;25704;-83
2022/02/09 11:35:14;;;;;;;23.95;14.93;;;;;;;6.26;81.36;97962.36;1660291;86;27484;-82
2022/02/09 11:46:29;;;;;;;28.38;15.60;;;;;;;6.47;80.82;97955.44;1660941;86;25855;-82
2022/02/09 12:08:53;;;;;;;17.32;8.98;;;;;;;6.51;79.93;97962.64;1662371;86;25810;-83
2022/02/09 12:11:39;;;;;;;15.38;7.72;;;;;;;6.49;79.79;97960.63;1659966;86;25733;-82
2022/02/09 12:17:14;;;;;;;11.12;6.33;;;;;;;6.47;79.98;97959.96;1661117;86;28290;-82
2022/02/09 12:19:29;;;;;;;8.58;5.25;;;;;;;6.49;79.75;97953.92;1657161;86;25891;-82
2022/02/09 12:22:05;;;;;;;16.87;8.03;;;;;;;6.49;79.58;97959.29;1660881;86;25751;-82
2022/02/09 12:24:32;;;;;;;24.40;10.85;;;;;;;6.52;79.56;97953.55;1660173;86;25812;-82
2022/02/09 12:27:09;;;;;;;23.30;11.18;;;;;;;6.53;79.44;97959.25;1661224;86;25276;-82
2022/02/09 12:29:44;;;;;;;22.13;10.88;;;;;;;6.58;79.45;97954.22;1661158;86;27461;-83
2022/02/09 12:32:23;;;;;;;17.12;8.90;;;;;;;6.62;79.35;97953.38;1649616;86;25767;-84
2022/02/09 12:35:00;;;;;;;12.53;7.35;;;;;;;6.67;79.29;97954.52;1649793;86;26468;-82
2022/02/09 12:37:34;;;;;;;14.30;8.20;;;;;;;6.74;79.25;97950.15;1649724;86;25695;-82
2022/02/09 12:40:17;;;;;;;13.88;6.90;;;;;;;6.82;79.08;97958.16;1649639;86;26316;-84
2022/02/09 12:42:47;;;;;;;10.40;6.35;;;;;;;6.84;79.00;97954.80;1656497;86;27390;-83
2022/02/09 12:45:21;;;;;;;9.15;5.40;;;;;;;6.88;78.82;97947.75;1656752;86;25870;-83
2022/02/09 12:47:52;;;;;;;11.00;6.45;;;;;;;6.91;78.71;97950.89;1656806;86;25886;-82
2022/02/09 12:50:40;;;;;;;8.90;5.78;;;;;;;6.93;78.58;97942.67;1656793;86;26653;-81
2022/02/09 12:53:05;;;;;;;9.08;5.12;;;;;;;6.93;78.44;97939.98;1656396;86;25955;-82
2022/02/09 12:55:35;;;;;;;12.93;7.25;;;;;;;6.93;78.41;97940.83;1656839;86;27407;-82
2022/02/09 12:58:07;;;;;;;14.28;8.23;;;;;;;6.95;78.29;97944.17;1656544;86;25810;-82
2022/02/09 13:00:40;;;;;;;12.47;6.78;;;;;;;6.99;78.21;97947.35;1656994;86;25292;-83
2022/02/09 13:03:15;;;;;;;18.02;9.13;;;;;;;6.98;78.12;97943.83;1656560;86;25767;-85
2022/02/09 13:05:45;;;;;;;19.30;9.53;;;;;;;6.97;78.00;97938.64;1656825;86;25749;-82
2022/02/09 13:08:23;;;;;;;16.75;8.53;;;;;;;6.97;78.00;97938.13;1656611;86;27428;-81
2022/02/09 13:10:50;;;;;;;15.75;7.72;;;;;;;6.95;77.90;97938.80;1656271;86;25937;-82
2022/02/09 13:13:30;;;;;;;13.28;8.25;;;;;;;6.92;77.82;97941.00;1656742;86;25821;-83
2022/02/09 13:16:01;;;;;;;9.65;6.65;;;;;;;6.92;77.80;97951.73;1655509;86;25811;-83
2022/02/09 13:54:07;;;;;;;6.58;3.47;;;;;;;6.93;76.94;97933.28;1657634;86;25800;-86
2022/02/09 14:15:14;;;;;;;7.17;4.75;;;;;;;7.49;76.09;97938.80;1656396;86;25938;-82
2022/02/09 14:34:44;;;;;;;15.98;7.97;;;;;;;7.49;74.89;97924.86;1656850;86;25851;-81
2022/02/09 14:52:27;;;;;;;11.00;6.95;;;;;;;7.35;74.39;97910.89;1656841;86;26614;-81
2022/02/09 14:54:48;;;;;;;17.37;10.38;;;;;;;7.25;74.31;97918.31;1654692;86;25793;-82
2022/02/09 14:57:19;;;;;;;13.43;7.25;;;;;;;7.19;74.17;97910.98;1656353;86;28345;-82
2022/02/09 15:02:17;;;;;;;33.83;13.50;;;;;;;7.17;74.56;97920.55;1657336;86;25845;-82
2022/02/09 15:10:20;;;;;;;19.10;11.25;;;;;;;7.20;74.42;97920.72;1662271;86;27571;-81
2022/02/09 15:12:29;;;;;;;15.43;8.53;;;;;;;7.16;74.43;97919.39;1654501;86;25764;-82
2022/02/09 15:17:47;;;;;;;17.98;9.28;;;;;;;7.21;74.35;97931.79;1661339;86;25633;-84
2022/02/09 15:22:52;;;;;;;13.85;8.45;;;;;;;7.07;74.28;97921.80;1656662;86;28090;-82
2022/02/09 15:25:20;;;;;;;10.08;7.12;;;;;;;7.10;74.34;97924.14;1656641;86;25738;-83
2022/02/09 15:27:47;;;;;;;10.75;7.25;;;;;;;7.08;74.20;97923.47;1656734;86;25718;-84
2022/02/09 15:30:14;;;;;;;10.70;6.70;;;;;;;7.05;74.15;97934.56;1631225;86;25857;-82
2022/02/09 15:32:45;;;;;;;14.20;7.92;;;;;;;7.00;74.04;97928.39;1656845;86;25842;-83
2022/02/09 15:37:46;;;;;;;16.67;9.00;;;;;;;6.92;74.05;97932.95;1669415;85;25409;-86
2022/02/09 15:40:21;;;;;;;15.70;9.28;;;;;;;6.87;73.98;97936.17;1661196;85;26282;-88
2022/02/09 15:59:17;;;;;;;14.53;8.88;;;;;;;6.67;74.02;97939.77;1655301;86;25741;-82
2022/02/09 16:22:30;;;;;;;32.75;17.35;;;;;;;6.55;73.69;97939.80;1661137;84;25735;-81
2022/02/09 16:33:17;;;;;;;55.73;30.17;;;;;;;6.41;73.60;97933.81;1659347;86;25941;-83
2022/02/09 16:38:22;;;;;;;32.83;17.12;;;;;;;6.31;73.72;97945.24;1657394;86;25916;-81
2022/02/09 16:46:22;;;;;;;39.50;19.55;;;;;;;6.28;73.75;97944.27;1661396;86;25742;-81
2022/02/09 16:48:58;;;;;;;25.30;13.65;;;;;;;6.26;73.75;97939.08;1664785;85;25785;-81
2022/02/09 16:51:22;;;;;;;32.00;16.93;;;;;;;6.26;73.77;97938.23;1660425;85;25261;-81
2022/02/09 16:56:45;;;;;;;23.32;13.25;;;;;;;6.20;73.68;97940.25;1662816;85;25687;-81
2022/02/09 17:20:55;;;;;;;42.45;20.43;;;;;;;6.01;73.85;97949.00;1660273;86;27417;-80
2022/02/09 17:23:21;;;;;;;55.03;25.43;;;;;;;6.01;73.92;97947.66;1658935;86;25824;-81
2022/02/09 17:25:48;;;;;;;42.85;19.90;;;;;;;6.03;73.91;97947.50;1659562;86;25841;-82
2022/02/09 17:28:17;;;;;;;34.27;17.23;;;;;;;6.02;73.85;97952.02;1659541;86;25892;-81
2022/02/09 17:33:34;;;;;;;38.05;19.85;;;;;;;6.03;73.80;97945.66;1660189;86;27457;-82
2022/02/09 17:36:00;;;;;;;48.38;25.20;;;;;;;6.01;73.91;97942.30;1656245;86;25812;-83
2022/02/09 17:38:30;;;;;;;44.88;25.12;;;;;;;5.96;73.79;97945.98;1657561;86;25925;-84
2022/02/09 17:57:18;;;;;;;118.90;59.08;;;;;;;5.71;74.00;97935.75;1637877;87;25911;-82
2022/02/09 17:59:55;;;;;;;130.03;62.23;;;;;;;5.69;74.12;97932.89;1636167;87;28112;-82
2022/02/09 18:02:08;;;;;;;124.25;55.75;;;;;;;5.65;74.20;97930.23;1633466;87;25699;-81
2022/02/09 18:04:36;;;;;;;97.65;46.20;;;;;;;5.65;74.16;97931.58;1635145;87;25724;-81
2022/02/09 18:07:09;;;;;;;62.83;30.10;;;;;;;5.60;74.23;97937.92;1635187;87;25891;-82
2022/02/09 18:09:42;;;;;;;32.88;16.62;;;;;;;5.58;74.31;97932.73;1634936;87;25856;-82
2022/02/09 18:12:15;;;;;;;24.15;13.48;;;;;;;5.58;74.34;97935.91;1634568;87;28102;-82
2022/02/09 18:14:59;;;;;;;20.43;11.45;;;;;;;5.60;74.41;97940.61;1638736;86;26110;-82
2022/02/09 18:46:57;;;;;;;31.70;17.00;;;;;;;5.84;74.06;97949.97;1614223;88;25840;-82
2022/02/09 18:57:41;;;;;;;53.68;30.48;;;;;;;5.88;74.02;97952.70;1607452;88;26143;-83
2022/02/09 19:05:21;;;;;;;61.75;32.13;;;;;;;5.87;73.91;97946.97;1652637;86;27404;-83
2022/02/09 19:19:25;;;;;;;;;;;;;;;5.87;74.00;97944.29;1679078;85;28033;-82
2022/02/09 19:31:41;;;;;;;24.95;13.83;;;;;;;5.80;74.04;97947.29;1663038;86;27571;-82
2022/02/09 19:43:10;;;;;;;17.30;8.88;;;;;;;5.84;74.09;97931.22;1663077;86;25835;-82
2022/02/09 19:47:45;;;;;;;31.82;15.60;;;;;;;5.82;73.99;97937.75;1663190;86;26152;-82
2022/02/09 19:50:23;;;;;;;33.13;17.55;;;;;;;5.76;74.07;97932.58;1661153;85;25691;-81
2022/02/09 19:52:55;;;;;;;28.12;15.00;;;;;;;5.75;74.19;97929.56;1661316;85;43987;-82
2022/02/09 19:57:56;;;;;;;26.27;14.40;;;;;;;5.78;74.15;97938.61;1663098;86;27399;-81
2022/02/09 20:00:22;;;;;;;17.23;10.10;;;;;;;5.80;74.20;97945.45;1662453;85;25923;-82
2022/02/09 20:02:49;;;;;;;16.77;9.25;;;;;;;5.79;74.08;97938.45;1662751;86;25711;-82
2022/02/09 20:05:17;;;;;;;15.35;9.55;;;;;;;5.76;74.13;97938.77;1662935;86;25746;-82
2022/02/09 20:07:44;;;;;;;16.02;10.38;;;;;;;5.74;74.10;97937.26;1663055;86;25660;-83
2022/02/09 20:10:12;;;;;;;19.42;10.25;;;;;;;5.74;74.17;97942.62;1663071;86;27375;-83
2022/02/09 20:12:40;;;;;;;20.57;11.85;;;;;;;5.73;74.14;97946.30;1662913;86;25684;-83
2022/02/09 20:15:12;;;;;;;21.25;11.93;;;;;;;5.72;74.12;97951.31;1663046;86;25746;-83
2022/02/09 20:17:41;;;;;;;26.15;14.03;;;;;;;5.70;74.15;97946.62;1659397;84;25965;-83
2022/02/09 20:20:14;;;;;;;19.23;10.38;;;;;;;5.73;74.21;97950.31;1635184;87;25987;-83
2022/02/09 20:22:39;;;;;;;21.10;10.87;;;;;;;5.71;74.19;97943.78;1653338;84;28489;-83
2022/02/09 20:25:08;;;;;;;21.60;11.75;;;;;;;5.72;74.17;97947.30;1658963;84;25716;-83
2022/02/09 20:27:37;;;;;;;28.92;14.13;;;;;;;5.73;74.20;97946.30;1662609;86;25725;-83
2022/02/09 20:30:08;;;;;;;24.37;13.22;;;;;;;5.74;74.18;97945.30;1661637;84;25804;-82
2022/02/09 20:32:40;;;;;;;41.63;20.92;;;;;;;5.76;74.15;97951.33;1657474;84;25812;-81
2022/02/09 20:35:07;;;;;;;43.08;20.65;;;;;;;5.65;73.90;97954.34;1655801;84;27508;-81
2022/02/09 20:37:33;;;;;;;48.92;22.77;;;;;;;5.53;73.99;97957.02;1661888;84;25752;-82
2022/02/09 20:40:08;;;;;;;45.03;23.12;;;;;;;5.47;74.05;97959.00;1656054;84;25887;-82
2022/02/09 20:42:31;;;;;;;44.33;19.45;;;;;;;5.36;74.07;97962.84;1677723;85;25784;-82
2022/02/09 20:45:09;;;;;;;24.30;11.68;;;;;;;5.26;74.13;97964.84;1679837;85;25799;-81
2022/02/09 20:47:29;;;;;;;11.57;7.92;;;;;;;5.23;74.27;97968.67;1660467;85;28260;-82
2022/02/09 20:49:55;;;;;;;17.52;10.00;;;;;;;5.27;74.25;97966.02;1661138;84;25915;-82
2022/02/09 20:52:22;;;;;;;12.07;7.10;;;;;;;5.32;74.26;97974.37;1662528;85;25767;-83
2022/02/09 20:54:48;;;;;;;11.50;7.20;;;;;;;5.35;74.21;97970.03;1656154;84;26446;-81
2022/02/09 20:57:15;;;;;;;11.03;6.97;;;;;;;5.40;74.07;97973.06;1659830;84;25755;-81
2022/02/09 20:59:47;;;;;;;9.00;6.50;;;;;;;5.42;73.92;97966.22;1662352;84;27598;-81
2022/02/09 21:04:55;;;;;;;9.95;6.78;;;;;;;5.44;73.70;97965.02;1655536;84;25724;-83
2022/02/09 21:07:33;;;;;;;12.20;7.37;;;;;;;5.48;73.60;97967.38;1646056;84;25751;-82
2022/02/09 21:09:56;;;;;;;11.25;7.55;;;;;;;5.53;73.50;97966.39;1656548;84;25820;-81
2022/02/09 21:12:31;;;;;;;44.25;21.40;;;;;;;5.55;73.29;97967.06;1655628;84;28385;-82
2022/02/09 21:15:08;;;;;;;15.45;9.35;;;;;;;5.58;73.18;97967.55;1660873;84;25875;-82
2022/02/09 21:20:34;;;;;;;24.23;12.18;;;;;;;5.58;72.89;97955.50;1672971;85;25863;-82
2022/02/09 21:23:31;;;;;;;24.80;14.60;;;;;;;5.60;72.79;97964.70;1631870;86;25972;-81
2022/02/09 21:33:23;;;;;;;23.30;12.63;;;;;;;5.60;72.40;97948.64;1657135;86;25734;-83
2022/02/09 21:54:22;;;;;;;36.70;16.35;;;;;;;5.67;71.87;97942.97;1647084;85;25716;-85
2022/02/09 21:56:50;;;;;;;24.47;12.15;;;;;;;5.66;71.77;97941.29;1661043;84;25902;-84
2022/02/09 22:24:11;;;;;;;19.95;10.35;;;;;;;5.53;71.05;97920.36;1658091;86;26463;-82
2022/02/09 22:26:33;;;;;;;18.62;9.33;;;;;;;5.51;70.94;97921.53;1654522;86;25785;-82
2022/02/09 22:28:43;;;;;;;20.57;9.83;;;;;;;5.51;70.88;97920.19;1654679;86;26576;-82
2022/02/09 22:47:51;;;;;;;24.90;12.70;;;;;;;5.34;71.06;97932.22;1656911;86;26542;-83
2022/02/09 22:50:05;;;;;;;19.07;11.68;;;;;;;5.31;71.13;97925.84;1655314;86;25791;-82
2022/02/09 22:55:19;;;;;;;25.37;13.28;;;;;;;5.29;71.13;97923.02;1663341;86;25888;-82
2022/02/09 22:57:53;;;;;;;21.15;11.43;;;;;;;5.29;71.04;97921.19;1662900;85;28373;-82
2022/02/09 23:00:40;;;;;;;23.87;12.23;;;;;;;5.30;71.03;97918.84;1662563;85;25800;-82
2022/02/09 23:03:04;;;;;;;17.92;10.98;;;;;;;5.28;71.05;97903.95;1662705;85;25246;-82
2022/02/09 23:11:11;;;;;;;14.85;9.15;;;;;;;5.29;70.90;97909.14;1663165;86;28139;-82
2022/02/09 23:13:21;;;;;;;17.30;10.13;;;;;;;5.27;70.90;97909.80;1661016;86;25817;-83
2022/02/09 23:19:15;;;;;;;19.15;11.12;;;;;;;5.24;70.82;97908.78;1663222;86;25713;-82
2022/02/09 23:22:33;;;;;;;21.20;11.40;;;;;;;5.22;70.90;97906.77;1660542;86;25551;-82
2022/02/09 23:23:53;;;;;;;22.67;12.80;;;;;;;5.20;70.92;97907.94;1638673;86;27441;-82
